Time;durP1;ratioP1;P1;durP2;ratioP2;P2;SDS_P1;SDS_P2;PMS_P1;PMS_P2;Temp;Humidity;BMP_temperature;BMP_pressure;BME280_temperature;BME280_humidity;BME280_pressure;Samples;Min_cycle;Max_cycle;Signal;HPM_P1;HPM_P2
2022/12/07 00:02:18;;;;;;;2.60;1.48;;;3.60;99.90;;;;;;5069766;28;20070;-69
2022/12/07 00:04:43;;;;;;;3.10;1.60;;;3.60;99.90;;;;;;5068311;28;20044;-67
2022/12/07 00:07:09;;;;;;;4.60;1.42;;;3.50;99.90;;;;;;5070088;28;20044;-67
2022/12/07 00:09:35;;;;;;;4.65;1.40;;;3.50;99.90;;;;;;5069331;28;20049;-67
2022/12/07 00:12:00;;;;;;;2.90;1.48;;;3.50;99.90;;;;;;5069744;28;20551;-67
2022/12/07 00:14:26;;;;;;;4.78;1.40;;;3.50;99.90;;;;;;5068563;28;20551;-67
2022/12/07 00:16:52;;;;;;;5.57;1.70;;;3.40;99.90;;;;;;5069939;28;20052;-67
2022/12/07 00:19:18;;;;;;;6.95;1.75;;;3.30;99.90;;;;;;5068902;28;20052;-70
2022/12/07 00:21:44;;;;;;;6.63;1.67;;;3.30;99.90;;;;;;5068895;28;20067;-68
2022/12/07 00:24:10;;;;;;;3.15;1.30;;;3.30;99.90;;;;;;5070047;28;20055;-67
2022/12/07 00:26:38;;;;;;;4.13;1.27;;;3.20;99.90;;;;;;5069228;28;20052;-67
2022/12/07 00:29:07;;;;;;;6.90;1.80;;;3.10;99.90;;;;;;5070004;28;20151;-67
2022/12/07 00:31:38;;;;;;;8.18;1.42;;;3.10;99.90;;;;;;5069261;28;20055;-68
2022/12/07 00:34:05;;;;;;;6.70;1.27;;;3.10;99.90;;;;;;5069556;28;20052;-67
2022/12/07 00:36:31;;;;;;;2.33;1.15;;;3.10;99.90;;;;;;5068815;28;20040;-68
2022/12/07 00:38:59;;;;;;;4.57;1.17;;;3.10;99.90;;;;;;5068446;28;20102;-67
2022/12/07 00:41:26;;;;;;;3.78;1.30;;;3.00;99.90;;;;;;5068884;28;20047;-67
2022/12/07 00:43:52;;;;;;;3.70;1.20;;;3.20;99.90;;;;;;5070065;28;20045;-68
2022/12/07 00:46:19;;;;;;;4.45;1.75;;;3.00;99.90;;;;;;5068838;28;20599;-67
2022/12/07 00:48:46;;;;;;;4.35;1.08;;;2.90;99.90;;;;;;5070191;28;20084;-67
2022/12/07 00:51:13;;;;;;;6.30;1.52;;;2.90;99.90;;;;;;5072227;28;20044;-68
2022/12/07 00:53:39;;;;;;;4.85;1.45;;;3.00;99.90;;;;;;5072489;28;20125;-67
2022/12/07 00:56:07;;;;;;;8.32;1.63;;;3.00;99.90;;;;;;5077515;28;20095;-67
2022/12/07 00:58:32;;;;;;;4.65;1.73;;;3.00;99.90;;;;;;5093129;28;20397;-67
2022/12/07 01:01:01;;;;;;;5.68;1.50;;;3.00;99.90;;;;;;5093374;28;20040;-67
2022/12/07 01:03:27;;;;;;;6.03;1.45;;;3.20;99.90;;;;;;5092704;28;20504;-67
2022/12/07 01:05:55;;;;;;;5.93;2.03;;;3.00;99.90;;;;;;5091263;28;20048;-68
2022/12/07 01:08:22;;;;;;;5.20;1.65;;;3.00;99.90;;;;;;5092882;28;20485;-67
2022/12/07 01:10:47;;;;;;;6.53;1.83;;;2.90;99.90;;;;;;5092185;28;20059;-67
2022/12/07 01:13:14;;;;;;;7.18;1.80;;;2.90;99.90;;;;;;5093473;28;20048;-67
2022/12/07 01:15:40;;;;;;;;;;;2.90;99.90;;;;;;5093056;28;20040;-67
2022/12/07 01:18:06;;;;;;;4.63;1.67;;;2.80;99.90;;;;;;5093059;28;20365;-67
2022/12/07 01:20:31;;;;;;;10.50;1.90;;;2.80;99.90;;;;;;5091605;28;20055;-67
2022/12/07 01:22:57;;;;;;;15.00;2.42;;;2.80;99.90;;;;;;5093053;28;20577;-67
2022/12/07 01:25:23;;;;;;;7.28;2.33;;;2.70;99.90;;;;;;5092406;28;20059;-67
2022/12/07 01:27:48;;;;;;;8.50;2.60;;;2.70;99.90;;;;;;5092268;28;20048;-67
2022/12/07 01:30:14;;;;;;;11.10;3.00;;;2.70;99.90;;;;;;5092758;28;20055;-67
2022/12/07 01:32:40;;;;;;;14.80;3.65;;;2.70;99.90;;;;;;5091667;28;20473;-67
2022/12/07 01:35:06;;;;;;;9.45;3.15;;;2.70;99.90;;;;;;5091610;28;20047;-68
2022/12/07 01:37:38;;;;;;;10.40;3.33;;;2.70;99.90;;;;;;5092391;28;20048;-67
2022/12/07 01:40:06;;;;;;;10.63;3.10;;;2.80;99.90;;;;;;5092322;28;20382;-67
2022/12/07 01:42:32;;;;;;;11.85;3.65;;;2.90;99.90;;;;;;5092001;28;20088;-67
2022/12/07 01:45:17;;;;;;;;;;;2.90;99.90;;;;;;5091983;28;20040;-68
2022/12/07 01:47:46;;;;;;;8.82;2.40;;;2.90;99.90;;;;;;5092270;28;19920;-67
2022/12/07 01:50:13;;;;;;;4.57;1.77;;;2.90;99.90;;;;;;5091305;28;20055;-68
2022/12/07 01:52:41;;;;;;;13.40;2.50;;;2.90;99.90;;;;;;5091339;28;20075;-67
2022/12/07 01:55:11;;;;;;;9.07;2.22;;;2.90;99.90;;;;;;5091740;28;20082;-68
2022/12/07 01:57:40;;;;;;;6.97;2.22;;;3.00;99.90;;;;;;5092008;28;20044;-67
2022/12/07 02:00:08;;;;;;;7.75;1.55;;;3.00;99.90;;;;;;5091093;28;20056;-67
2022/12/07 02:02:37;;;;;;;4.95;1.85;;;2.90;99.90;;;;;;5091915;28;20135;-67
2022/12/07 02:05:05;;;;;;;8.00;1.70;;;2.90;99.90;;;;;;5091066;28;20044;-67
2022/12/07 02:07:32;;;;;;;5.50;1.75;;;2.90;99.90;;;;;;5092168;28;20062;-69
2022/12/07 02:10:11;;;;;;;5.53;1.58;;;2.90;99.90;;;;;;5091744;28;20075;-66
2022/12/07 02:12:37;;;;;;;3.47;1.20;;;2.90;99.90;;;;;;5090739;28;20515;-67
2022/12/07 02:15:03;;;;;;;5.85;1.17;;;3.00;99.90;;;;;;5091819;28;20052;-67
2022/12/07 02:17:32;;;;;;;;;;;3.00;99.90;;;;;;5092704;28;20044;-67
2022/12/07 02:20:23;;;;;;;3.58;1.00;;;3.10;99.90;;;;;;5090881;28;19927;-67
2022/12/07 02:23:07;;;;;;;4.22;1.13;;;3.20;99.90;;;;;;5091693;28;20087;-67
2022/12/07 02:26:06;;;;;;;6.43;1.17;;;3.30;99.90;;;;;;5091171;28;20188;-70
2022/12/07 02:28:35;;;;;;;6.47;1.20;;;3.40;99.90;;;;;;5092047;28;20432;-67
2022/12/07 02:31:17;;;;;;;1.52;0.95;;;3.60;99.90;;;;;;5091218;28;20485;-67
2022/12/07 02:33:54;;;;;;;6.57;1.45;;;3.40;99.90;;;;;;5090230;28;20050;-67
2022/12/07 02:36:28;;;;;;;6.30;1.10;;;3.50;99.90;;;;;;5090480;28;20047;-68
2022/12/07 02:39:13;;;;;;;11.55;1.42;;;3.50;99.90;;;;;;5090718;28;20135;-67
2022/12/07 02:42:04;;;;;;;5.60;1.25;;;3.60;99.90;;;;;;5070470;28;20474;-67
2022/12/07 02:44:31;;;;;;;5.82;1.10;;;3.60;99.90;;;;;;5071245;28;20054;-68
2022/12/07 02:47:09;;;;;;;4.47;1.33;;;3.60;99.90;;;;;;5065960;28;20090;-67
2022/12/07 02:49:38;;;;;;;5.03;1.48;;;3.60;99.90;;;;;;5070302;28;20053;-67
2022/12/07 02:52:04;;;;;;;6.28;1.00;;;3.60;99.90;;;;;;5072091;28;20049;-67
2022/12/07 02:54:29;;;;;;;6.72;1.30;;;3.50;99.90;;;;;;5090024;28;20059;-67
2022/12/07 02:57:18;;;;;;;2.40;0.90;;;3.60;99.90;;;;;;5071615;28;20060;-67
2022/12/07 02:59:57;;;;;;;8.32;0.90;;;3.70;99.90;;;;;;5072591;28;20054;-67
2022/12/07 03:02:33;;;;;;;2.63;0.90;;;3.30;99.90;;;;;;5091396;28;20382;-67
2022/12/07 03:05:37;;;;;;;5.78;1.33;;;3.20;99.90;;;;;;5089826;28;20873;-67
2022/12/07 03:08:26;;;;;;;6.55;1.30;;;3.10;99.90;;;;;;5090381;28;20108;-67
2022/12/07 03:10:59;;;;;;;4.45;1.00;;;3.00;99.90;;;;;;5089751;28;20121;-67
2022/12/07 03:13:55;;;;;;;7.38;1.50;;;3.00;99.90;;;;;;5091173;28;20508;-67
2022/12/07 03:16:28;;;;;;;8.05;1.92;;;3.00;99.90;;;;;;5091195;28;20044;-67
2022/12/07 03:18:59;;;;;;;3.67;1.65;;;2.90;99.90;;;;;;5090529;28;20525;-67
2022/12/07 03:21:27;;;;;;;6.20;1.38;;;2.90;99.90;;;;;;5090008;28;20044;-67
2022/12/07 03:23:58;;;;;;;3.05;1.20;;;2.90;99.90;;;;;;5089208;28;20048;-67
2022/12/07 03:26:38;;;;;;;5.88;1.20;;;2.90;99.90;;;;;;5090570;28;20113;-67
2022/12/07 03:29:34;;;;;;;4.10;1.35;;;2.80;99.90;;;;;;5090345;28;20054;-67
2022/12/07 03:32:32;;;;;;;4.85;1.55;;;2.80;99.90;;;;;;5077038;28;20105;-67
2022/12/07 03:35:10;;;;;;;8.13;1.20;;;2.80;99.90;;;;;;5088035;28;20105;-67
2022/12/07 03:37:45;;;;;;;4.22;1.17;;;2.80;99.90;;;;;;5090939;28;20079;-67
2022/12/07 03:40:30;;;;;;;11.40;1.40;;;2.70;99.90;;;;;;5089676;28;20481;-67
2022/12/07 03:42:59;;;;;;;2.67;1.15;;;2.70;99.90;;;;;;5090394;28;20051;-67
2022/12/07 03:45:38;;;;;;;2.45;1.10;;;2.70;99.90;;;;;;5089606;28;20040;-67
2022/12/07 03:48:07;;;;;;;3.08;1.30;;;2.70;99.90;;;;;;5090490;28;20113;-67
2022/12/07 03:50:46;;;;;;;2.65;1.10;;;2.70;99.90;;;;;;5089493;28;20441;-67
2022/12/07 03:53:39;;;;;;;7.88;1.20;;;2.80;99.90;;;;;;5073390;28;20048;-67
2022/12/07 03:56:06;;;;;;;5.68;1.48;;;2.80;99.90;;;;;;5087105;28;20652;-67
2022/12/07 03:58:33;;;;;;;7.57;1.38;;;2.70;99.90;;;;;;5090567;28;20062;-67
2022/12/07 04:00:59;;;;;;;8.88;1.13;;;2.70;99.90;;;;;;5071793;28;20127;-68
2022/12/07 04:03:25;;;;;;;10.07;2.47;;;2.70;99.90;;;;;;5090542;28;20479;-67
2022/12/07 04:05:50;;;;;;;7.55;2.20;;;2.70;99.90;;;;;;5089107;28;20051;-67
2022/12/07 04:08:16;;;;;;;2.65;1.30;;;2.70;99.90;;;;;;5090082;28;20083;-67
2022/12/07 04:10:42;;;;;;;2.55;1.00;;;2.90;99.90;;;;;;5072120;28;20396;-67
2022/12/07 04:13:08;;;;;;;7.40;1.17;;;2.60;99.90;;;;;;5090033;28;20361;-67
2022/12/07 04:15:33;;;;;;;3.50;1.10;;;2.60;99.90;;;;;;5090230;28;20040;-67
2022/12/07 04:17:59;;;;;;;1.65;0.98;;;2.50;99.90;;;;;;5089169;28;20040;-67
2022/12/07 04:20:25;;;;;;;5.22;1.27;;;2.50;99.90;;;;;;5069028;28;20037;-67
2022/12/07 04:22:50;;;;;;;2.15;0.77;;;2.40;99.90;;;;;;5086235;28;20048;-68
2022/12/07 04:25:16;;;;;;;2.97;1.00;;;2.40;99.90;;;;;;5093380;28;20512;-67
2022/12/07 04:27:42;;;;;;;7.57;1.33;;;2.40;99.90;;;;;;5094250;28;20052;-67
2022/12/07 04:30:08;;;;;;;5.40;1.13;;;2.60;99.90;;;;;;5093419;28;20806;-67
2022/12/07 04:32:34;;;;;;;4.55;1.20;;;2.30;99.90;;;;;;5094192;28;20671;-68
2022/12/07 04:34:59;;;;;;;5.22;1.55;;;2.30;99.90;;;;;;5092370;28;20048;-67
2022/12/07 04:37:25;;;;;;;1.17;0.70;;;2.30;99.90;;;;;;5094063;28;20079;-67
2022/12/07 04:39:51;;;;;;;4.68;1.05;;;2.30;99.90;;;;;;5093280;28;20052;-69
2022/12/07 04:42:16;;;;;;;2.63;1.63;;;2.30;99.90;;;;;;5092634;28;20036;-67
2022/12/07 04:44:42;;;;;;;2.58;1.13;;;2.30;99.90;;;;;;5093813;28;20101;-67
2022/12/07 04:47:08;;;;;;;5.60;1.20;;;2.30;99.90;;;;;;5093351;28;20044;-67
2022/12/07 04:49:34;;;;;;;4.65;0.98;;;2.30;99.90;;;;;;5092876;28;20052;-67
2022/12/07 04:51:59;;;;;;;7.10;1.00;;;2.20;99.90;;;;;;5093020;28;20028;-67
2022/12/07 04:54:25;;;;;;;3.67;1.02;;;2.10;99.90;;;;;;5093178;28;20155;-67
2022/12/07 04:56:51;;;;;;;5.70;1.00;;;2.20;99.90;;;;;;5092982;28;20064;-67
2022/12/07 04:59:17;;;;;;;4.75;1.50;;;2.20;99.90;;;;;;5092556;28;20112;-67
2022/12/07 05:01:43;;;;;;;9.48;1.60;;;2.10;99.90;;;;;;5093181;28;20123;-67
2022/12/07 05:04:09;;;;;;;2.53;1.23;;;2.00;99.90;;;;;;5092438;28;20051;-67
2022/12/07 05:06:34;;;;;;;8.93;0.90;;;2.00;99.90;;;;;;5092566;28;20489;-67
2022/12/07 05:09:01;;;;;;;4.60;1.70;;;2.00;99.90;;;;;;5091236;28;20089;-67
2022/12/07 05:11:38;;;;;;;5.15;1.33;;;2.00;99.90;;;;;;5072708;28;20490;-67
2022/12/07 05:14:22;;;;;;;2.95;1.00;;;2.00;99.90;;;;;;5072070;28;20079;-67
2022/12/07 05:16:50;;;;;;;5.80;1.00;;;2.00;99.90;;;;;;5072649;28;20040;-67
2022/12/07 05:19:17;;;;;;;5.93;1.00;;;2.30;99.90;;;;;;5071569;28;20049;-67
2022/12/07 05:21:43;;;;;;;3.60;1.17;;;2.00;99.90;;;;;;5072771;28;20131;-67
2022/12/07 05:24:11;;;;;;;11.50;1.25;;;2.00;99.90;;;;;;5072143;28;20135;-67
2022/12/07 05:26:37;;;;;;;4.63;0.80;;;2.00;99.90;;;;;;5090833;28;20047;-67
2022/12/07 05:29:03;;;;;;;10.15;1.20;;;2.00;99.90;;;;;;5092762;28;20048;-67
2022/12/07 05:31:29;;;;;;;6.88;1.42;;;2.20;99.90;;;;;;5092748;28;20044;-68
2022/12/07 05:33:55;;;;;;;6.38;0.80;;;2.20;99.90;;;;;;5092689;28;20044;-69
2022/12/07 05:36:21;;;;;;;8.00;0.77;;;2.30;99.90;;;;;;5091512;28;20040;-67
2022/12/07 05:38:47;;;;;;;6.18;0.98;;;2.30;99.90;;;;;;5092628;28;20054;-67
2022/12/07 05:44:00;;;;;;;10.20;1.58;;;2.40;99.90;;;;;;5092301;28;20044;-69
2022/12/07 05:46:26;;;;;;;3.38;0.95;;;2.50;99.90;;;;;;5091789;28;20040;-67
2022/12/07 05:48:52;;;;;;;3.63;1.27;;;2.50;99.90;;;;;;5074762;28;20047;-68
2022/12/07 05:51:18;;;;;;;6.13;1.27;;;2.60;99.90;;;;;;5090676;28;20059;-67
2022/12/07 05:53:44;;;;;;;13.60;1.55;;;2.70;99.90;;;;;;5092185;28;20110;-67
2022/12/07 05:56:10;;;;;;;5.82;1.17;;;2.70;99.90;;;;;;5072112;28;20480;-67
2022/12/07 06:01:20;;;;;;;4.65;1.23;;;2.70;99.90;;;;;;5081695;28;20504;-67
2022/12/07 06:03:46;;;;;;;3.25;1.02;;;2.80;99.90;;;;;;5092376;28;20044;-67
2022/12/07 06:06:11;;;;;;;6.13;0.98;;;2.70;99.90;;;;;;5094505;28;20108;-67
2022/12/07 06:08:37;;;;;;;8.15;1.75;;;2.70;99.90;;;;;;5091477;28;20051;-67
2022/12/07 06:13:47;;;;;;;5.18;1.08;;;2.50;99.90;;;;;;5092154;28;20113;-67
2022/12/07 06:16:12;;;;;;;1.27;0.90;;;2.50;99.90;;;;;;5091234;28;20480;-67
2022/12/07 06:18:38;;;;;;;5.47;1.10;;;2.40;99.90;;;;;;5092083;28;20039;-68
2022/12/07 06:21:04;;;;;;;6.75;1.10;;;2.40;99.90;;;;;;5090143;28;20044;-67
2022/12/07 06:23:29;;;;;;;5.97;1.00;;;2.20;99.90;;;;;;5073667;28;20043;-67
2022/12/07 06:25:55;;;;;;;4.32;0.90;;;2.10;99.90;;;;;;5091482;28;20059;-67
2022/12/07 06:28:21;;;;;;;9.57;1.55;;;2.10;99.90;;;;;;5072389;28;20070;-67
2022/12/07 06:30:46;;;;;;;3.95;0.93;;;2.00;99.90;;;;;;5057100;28;20040;-67
2022/12/07 06:33:12;;;;;;;4.35;1.52;;;2.00;99.90;;;;;;5091180;28;20052;-67
2022/12/07 06:35:38;;;;;;;4.28;1.20;;;2.00;99.90;;;;;;5076498;28;20045;-67
2022/12/07 06:38:03;;;;;;;2.63;1.00;;;1.90;99.90;;;;;;5070722;28;20067;-70
2022/12/07 06:40:29;;;;;;;2.17;1.30;;;1.80;99.90;;;;;;5070995;28;20436;-67
2022/12/07 06:42:55;;;;;;;7.68;1.33;;;2.10;99.90;;;;;;5071426;28;20055;-67
2022/12/07 06:45:20;;;;;;;5.03;1.40;;;1.70;99.90;;;;;;5089122;28;20039;-67
2022/12/07 06:47:46;;;;;;;4.65;1.05;;;1.70;99.90;;;;;;5091081;28;20036;-67
2022/12/07 06:50:11;;;;;;;2.25;1.00;;;1.80;99.90;;;;;;5071822;28;20401;-67
2022/12/07 06:52:37;;;;;;;4.35;2.25;;;1.80;99.90;;;;;;5090637;28;20078;-67
2022/12/07 06:55:03;;;;;;;5.75;1.33;;;1.80;99.90;;;;;;5073036;28;20106;-69
2022/12/07 06:57:29;;;;;;;2.97;1.15;;;1.80;99.90;;;;;;5090652;28;20055;-67
2022/12/07 06:59:54;;;;;;;9.77;1.83;;;1.80;99.90;;;;;;5072999;28;20538;-68
2022/12/07 07:02:20;;;;;;;7.57;1.38;;;1.90;99.90;;;;;;5090839;28;20138;-68
2022/12/07 07:04:46;;;;;;;12.43;1.75;;;1.90;99.90;;;;;;5090243;28;20077;-67
2022/12/07 07:07:11;;;;;;;7.85;1.52;;;1.90;99.90;;;;;;5089723;28;20538;-67
2022/12/07 07:09:37;;;;;;;5.30;1.10;;;1.90;99.90;;;;;;5090556;28;20056;-67
2022/12/07 07:12:03;;;;;;;3.55;1.20;;;1.90;99.90;;;;;;5086417;28;20120;-67
2022/12/07 07:14:28;;;;;;;11.27;1.63;;;1.90;99.90;;;;;;5078137;28;20044;-69
2022/12/07 07:16:54;;;;;;;7.45;1.25;;;1.90;99.90;;;;;;5091020;28;20044;-69
2022/12/07 07:19:20;;;;;;;8.48;1.50;;;1.90;99.90;;;;;;5089558;28;20086;-67
2022/12/07 07:21:45;;;;;;;7.88;2.33;;;1.90;99.90;;;;;;5090884;28;20052;-68
2022/12/07 07:24:11;;;;;;;1.95;1.10;;;1.80;99.90;;;;;;5071895;28;20481;-68
2022/12/07 07:26:36;;;;;;;15.68;1.60;;;1.80;99.90;;;;;;5090640;28;20458;-67
2022/12/07 07:29:02;;;;;;;6.22;1.30;;;1.80;99.90;;;;;;5072791;28;20044;-67
2022/12/07 07:31:28;;;;;;;6.07;1.33;;;1.80;99.90;;;;;;5090265;28;20607;-67
2022/12/07 07:33:53;;;;;;;4.13;1.60;;;1.90;99.90;;;;;;5090696;28;20044;-67
2022/12/07 07:36:19;;;;;;;12.43;1.77;;;1.90;99.90;;;;;;5088300;28;20047;-67
2022/12/07 07:38:45;;;;;;;4.93;1.08;;;2.00;99.90;;;;;;5090340;28;20052;-67
2022/12/07 07:41:10;;;;;;;7.25;1.55;;;2.00;99.90;;;;;;5089999;28;20076;-70
2022/12/07 07:43:36;;;;;;;4.38;1.33;;;2.10;99.90;;;;;;5090766;28;20091;-68
2022/12/07 07:46:02;;;;;;;2.65;1.00;;;2.10;99.90;;;;;;5090465;28;20046;-67
2022/12/07 07:48:27;;;;;;;3.92;1.00;;;2.20;99.90;;;;;;5090075;28;20040;-67
2022/12/07 07:50:53;;;;;;;2.33;1.00;;;2.30;99.90;;;;;;5071678;28;20480;-67
2022/12/07 07:53:19;;;;;;;5.53;1.23;;;2.30;99.90;;;;;;5089678;28;20088;-67
2022/12/07 07:55:54;;;;;;;6.32;1.00;;;2.40;99.90;;;;;;5090174;28;20036;-68
2022/12/07 07:58:21;;;;;;;4.90;0.98;;;2.40;99.90;;;;;;5073290;28;20059;-67
2022/12/07 08:00:46;;;;;;;2.35;0.90;;;2.40;99.90;;;;;;5093712;28;20104;-68
2022/12/07 08:03:12;;;;;;;4.90;1.35;;;2.50;99.90;;;;;;5094470;28;20044;-70
2022/12/07 08:05:38;;;;;;;5.57;1.20;;;2.50;99.90;;;;;;5093477;28;20047;-68
2022/12/07 08:08:04;;;;;;;6.00;1.73;;;2.50;99.90;;;;;;5094173;28;20047;-68
2022/12/07 08:10:31;;;;;;;4.43;0.90;;;2.50;99.90;;;;;;5093698;28;20039;-68
2022/12/07 08:13:13;;;;;;;13.07;2.03;;;2.50;99.90;;;;;;5094205;28;20044;-67
2022/12/07 08:15:41;;;;;;;7.18;1.45;;;2.50;99.90;;;;;;5093954;28;20393;-67
2022/12/07 08:18:07;;;;;;;4.72;1.38;;;2.60;99.90;;;;;;5094388;28;20044;-68
2022/12/07 08:20:35;;;;;;;4.47;0.98;;;2.60;99.90;;;;;;5091603;28;20028;-70
2022/12/07 08:23:01;;;;;;;6.38;1.35;;;2.70;99.90;;;;;;5094176;28;20059;-68
2022/12/07 08:25:27;;;;;;;5.75;1.42;;;2.80;99.90;;;;;;5093274;28;20242;-68
2022/12/07 08:27:54;;;;;;;3.80;1.00;;;2.80;99.90;;;;;;5091798;28;20109;-67
2022/12/07 08:30:20;;;;;;;3.30;1.02;;;2.80;99.90;;;;;;5087696;28;20043;-67
2022/12/07 08:32:47;;;;;;;4.47;0.95;;;2.80;99.90;;;;;;5092273;28;20054;-68
2022/12/07 08:35:13;;;;;;;7.38;1.02;;;2.80;99.90;;;;;;5089088;28;20048;-69
2022/12/07 08:37:39;;;;;;;3.15;0.95;;;2.80;99.90;;;;;;5088258;28;20036;-67
2022/12/07 08:40:07;;;;;;;4.40;1.60;;;3.00;99.90;;;;;;5090435;28;20040;-67
2022/12/07 08:42:39;;;;;;;5.82;1.45;;;2.90;99.90;;;;;;5090165;28;20083;-67
2022/12/07 08:45:07;;;;;;;4.65;1.20;;;3.00;99.90;;;;;;5074250;28;20067;-67
2022/12/07 08:47:36;;;;;;;3.80;1.30;;;3.00;99.90;;;;;;5087511;28;20401;-67
2022/12/07 08:50:03;;;;;;;12.43;1.60;;;3.10;99.90;;;;;;5090195;28;20401;-67
2022/12/07 08:52:31;;;;;;;9.15;1.00;;;3.10;99.90;;;;;;5091430;28;20051;-67
2022/12/07 08:54:58;;;;;;;4.30;1.00;;;3.10;99.90;;;;;;5091280;28;20524;-67
2022/12/07 08:57:24;;;;;;;6.32;1.35;;;3.00;99.90;;;;;;5084350;28;20060;-67
2022/12/07 08:59:49;;;;;;;5.50;1.20;;;2.90;99.90;;;;;;5084456;28;20046;-68
2022/12/07 09:02:15;;;;;;;7.25;1.20;;;2.90;99.90;;;;;;5091323;28;20066;-68
2022/12/07 09:04:40;;;;;;;7.30;1.77;;;2.80;99.90;;;;;;5091572;28;20097;-68
2022/12/07 09:07:06;;;;;;;2.13;1.05;;;2.70;99.90;;;;;;5076334;28;20098;-68
2022/12/07 09:09:32;;;;;;;4.20;1.25;;;2.70;99.90;;;;;;5078409;28;20044;-68
2022/12/07 09:11:58;;;;;;;6.53;1.10;;;2.70;99.90;;;;;;5091903;28;20040;-67
2022/12/07 09:14:24;;;;;;;3.05;1.08;;;2.80;99.90;;;;;;5071581;28;20106;-68
2022/12/07 09:16:50;;;;;;;7.78;1.02;;;2.90;99.90;;;;;;5066252;28;20055;-68
2022/12/07 09:19:15;;;;;;;1.90;1.08;;;3.10;99.90;;;;;;5073238;28;20106;-66
2022/12/07 09:21:41;;;;;;;5.28;1.42;;;3.30;99.90;;;;;;5080000;28;20035;-65
2022/12/07 09:24:07;;;;;;;4.07;1.30;;;3.50;99.90;;;;;;5091703;28;20078;-66
2022/12/07 09:26:34;;;;;;;5.13;1.00;;;3.60;99.90;;;;;;5090933;28;20079;-65
2022/12/07 09:29:01;;;;;;;8.32;2.05;;;3.70;99.90;;;;;;5077699;28;20048;-66
2022/12/07 09:31:27;;;;;;;2.75;1.05;;;3.90;99.90;;;;;;5090775;28;20039;-65
2022/12/07 09:34:02;;;;;;;4.20;1.23;;;3.70;99.90;;;;;;5045421;28;20041;-66
2022/12/07 09:36:28;;;;;;;2.85;1.00;;;3.70;99.90;;;;;;5070677;28;20044;-66
2022/12/07 09:38:54;;;;;;;;;;;3.80;99.90;;;;;;5062308;28;20444;-66
2022/12/07 09:41:20;;;;;;;4.38;1.20;;;4.10;99.90;;;;;;5080778;28;19920;-66
2022/12/07 09:43:46;;;;;;;7.38;1.83;;;3.70;99.90;;;;;;5091821;28;20058;-66
2022/12/07 09:46:15;;;;;;;1.88;1.20;;;3.70;99.90;;;;;;5075435;28;20044;-66
2022/12/07 09:48:43;;;;;;;4.28;1.50;;;3.70;99.90;;;;;;5087482;28;20051;-66
2022/12/07 09:51:16;;;;;;;5.45;1.60;;;3.80;99.90;;;;;;5088072;28;20134;-67
2022/12/07 09:53:42;;;;;;;8.13;1.27;;;4.00;99.90;;;;;;5089634;28;20052;-66
2022/12/07 09:56:13;;;;;;;4.82;1.05;;;3.90;99.90;;;;;;5085583;28;20044;-66
2022/12/07 09:58:39;;;;;;;3.25;1.38;;;4.10;99.90;;;;;;5083439;28;20045;-66
2022/12/07 10:01:08;;;;;;;11.20;1.50;;;4.20;99.90;;;;;;5085590;28;20747;-66
2022/12/07 10:03:37;;;;;;;4.65;2.10;;;4.30;99.90;;;;;;5086118;28;20082;-66
2022/12/07 10:06:05;;;;;;;6.50;1.58;;;4.40;99.90;;;;;;5089963;28;20083;-66
2022/12/07 10:08:31;;;;;;;4.80;1.23;;;4.60;99.90;;;;;;5089232;28;20152;-66
2022/12/07 10:10:58;;;;;;;3.58;1.70;;;4.70;99.90;;;;;;5090228;28;20047;-66
2022/12/07 10:13:42;;;;;;;5.07;1.40;;;4.80;99.90;;;;;;5086444;28;20048;-65
2022/12/07 10:16:32;;;;;;;4.95;1.38;;;4.70;99.90;;;;;;5090592;28;20082;-66
2022/12/07 10:19:34;;;;;;;3.17;1.35;;;4.70;99.90;;;;;;5087826;28;20055;-67
2022/12/07 10:22:11;;;;;;;4.43;1.20;;;4.70;99.90;;;;;;5084694;28;20396;-67
2022/12/07 10:24:40;;;;;;;;;;;4.70;99.90;;;;;;5088432;28;20083;-66
2022/12/07 10:27:17;;;;;;;3.33;1.13;;;4.80;99.90;;;;;;5090686;28;19920;-65
2022/12/07 10:29:50;;;;;;;6.55;1.10;;;4.80;99.90;;;;;;5082591;28;20044;-66
2022/12/07 10:32:16;;;;;;;3.70;1.02;;;4.80;99.90;;;;;;5089996;28;20037;-66
2022/12/07 10:34:41;;;;;;;4.90;1.30;;;4.80;99.90;;;;;;5087450;28;20042;-66
2022/12/07 10:37:14;;;;;;;4.80;1.73;;;4.70;99.90;;;;;;5089049;28;20459;-63
2022/12/07 10:39:49;;;;;;;5.30;1.20;;;5.10;99.90;;;;;;5087635;28;20054;-63
2022/12/07 10:42:17;;;;;;;4.63;1.13;;;4.60;99.90;;;;;;5090513;28;20047;-63
2022/12/07 10:44:43;;;;;;;6.00;1.33;;;4.50;99.90;;;;;;5086027;28;20050;-65
2022/12/07 10:47:17;;;;;;;3.17;1.30;;;4.50;99.90;;;;;;5088915;28;20044;-65
2022/12/07 10:49:58;;;;;;;10.93;2.28;;;4.50;99.90;;;;;;5081698;28;20083;-65
2022/12/07 10:52:45;;;;;;;5.90;1.50;;;4.60;99.90;;;;;;5089465;28;20097;-65
2022/12/07 10:55:21;;;;;;;5.30;1.20;;;4.70;99.90;;;;;;5070910;28;20188;-65
2022/12/07 10:57:55;;;;;;;3.75;2.30;;;4.70;99.90;;;;;;5089051;28;20048;-66
2022/12/07 11:00:25;;;;;;;2.80;1.42;;;4.80;99.90;;;;;;5089565;28;20044;-65
2022/12/07 11:03:10;;;;;;;6.75;1.20;;;4.90;99.90;;;;;;5088866;28;20335;-65
2022/12/07 11:06:22;;;;;;;7.28;1.60;;;4.90;99.90;;;;;;5085712;28;20040;-65
2022/12/07 11:09:26;;;;;;;7.40;1.17;;;5.10;99.90;;;;;;5023000;28;20558;-66
2022/12/07 11:12:02;;;;;;;3.13;1.20;;;5.20;99.90;;;;;;5017146;28;20042;-66
2022/12/07 11:14:44;;;;;;;4.40;1.10;;;5.40;99.90;;;;;;5078550;28;20087;-67
2022/12/07 11:17:45;;;;;;;3.83;1.13;;;5.40;99.90;;;;;;5089374;28;20040;-67
2022/12/07 11:20:34;;;;;;;5.35;1.50;;;5.60;99.90;;;;;;5044230;28;20501;-67
2022/12/07 11:23:18;;;;;;;2.20;1.33;;;5.90;99.90;;;;;;5086602;28;20044;-67
2022/12/07 11:25:53;;;;;;;4.30;1.05;;;6.40;99.90;;;;;;5087625;28;20438;-67
2022/12/07 11:28:55;;;;;;;4.10;1.23;;;6.70;99.90;;;;;;5088953;28;20112;-67
2022/12/07 11:31:44;;;;;;;4.03;1.15;;;6.70;99.90;;;;;;5086354;28;20048;-67
2022/12/07 11:34:49;;;;;;;3.10;1.00;;;6.50;99.90;;;;;;5067175;28;20126;-68
2022/12/07 11:37:21;;;;;;;6.43;1.33;;;6.30;99.90;;;;;;5072573;28;20060;-67
2022/12/07 11:40:01;;;;;;;8.00;1.45;;;6.20;99.90;;;;;;5064873;28;20393;-67
2022/12/07 11:42:58;;;;;;;8.90;1.63;;;6.20;99.90;;;;;;5085666;28;20068;-68
2022/12/07 11:45:31;;;;;;;9.32;1.48;;;6.30;99.90;;;;;;5085080;28;20093;-66
2022/12/07 11:48:02;;;;;;;2.33;1.08;;;6.40;99.90;;;;;;5071922;28;20105;-67
2022/12/07 11:50:57;;;;;;;3.13;1.30;;;6.50;99.90;;;;;;5072815;28;20039;-66
2022/12/07 11:53:39;;;;;;;6.20;1.10;;;6.60;99.90;;;;;;5076226;28;20056;-67
2022/12/07 11:56:12;;;;;;;10.10;1.83;;;6.60;99.90;;;;;;5069771;28;20052;-66
2022/12/07 11:58:41;;;;;;;4.00;1.58;;;6.70;99.90;;;;;;5070259;28;20552;-67
2022/12/07 12:01:34;;;;;;;5.95;1.10;;;6.70;99.90;;;;;;5082314;28;20055;-65
2022/12/07 12:04:09;;;;;;;3.05;1.05;;;6.60;99.90;;;;;;5065507;28;20123;-67
2022/12/07 12:06:35;;;;;;;8.35;2.03;;;6.70;99.90;;;;;;5088963;28;20067;-66
2022/12/07 12:09:18;;;;;;;3.05;0.85;;;7.00;99.90;;;;;;5089254;28;20118;-68
2022/12/07 12:12:03;;;;;;;2.05;1.00;;;7.40;99.90;;;;;;5078616;28;20102;-67
2022/12/07 12:15:01;;;;;;;2.20;1.20;;;7.80;99.90;;;;;;5069628;28;20520;-67
2022/12/07 12:17:26;;;;;;;;;;;8.90;99.90;;;;;;5070616;28;20076;-67
2022/12/07 12:20:17;;;;;;;6.30;0.95;;;10.10;99.90;;;;;;5068542;28;20372;-68
2022/12/07 12:22:47;;;;;;;6.05;0.90;;;11.10;99.90;;;;;;5052260;28;20416;-77
2022/12/07 12:25:27;;;;;;;6.22;0.90;;;11.30;99.90;;;;;;5077905;28;20058;-71
2022/12/07 12:27:57;;;;;;;6.53;1.55;;;11.00;99.90;;;;;;5085924;28;20077;-72
2022/12/07 12:30:38;;;;;;;3.45;1.23;;;10.90;99.90;;;;;;5089811;28;20084;-69
2022/12/07 12:33:14;;;;;;;4.47;1.05;;;10.90;99.90;;;;;;5089683;28;20131;-68
2022/12/07 12:35:40;;;;;;;2.92;1.00;;;10.80;99.90;;;;;;5089059;28;20044;-70
2022/12/07 12:38:25;;;;;;;4.97;1.33;;;10.50;99.90;;;;;;5078090;28;20051;-69
2022/12/07 12:40:50;;;;;;;8.80;2.25;;;10.10;99.90;;;;;;5079391;28;20139;-67
2022/12/07 12:43:45;;;;;;;4.35;1.30;;;9.80;99.90;;;;;;5090155;28;20130;-66
2022/12/07 12:46:30;;;;;;;4.63;2.33;;;9.60;99.90;;;;;;5073327;28;20058;-67
2022/12/07 12:49:14;;;;;;;3.17;1.20;;;9.30;99.90;;;;;;5088568;28;20093;-66
2022/12/07 12:51:42;;;;;;;4.70;1.27;;;8.80;99.90;;;;;;5082881;28;20455;-66
2022/12/07 12:54:31;;;;;;;5.93;1.50;;;8.40;99.90;;;;;;5092542;28;20112;-67
2022/12/07 12:57:03;;;;;;;8.05;1.60;;;8.20;99.90;;;;;;5092143;28;20154;-67
2022/12/07 12:59:32;;;;;;;4.38;1.02;;;8.10;99.90;;;;;;5083125;28;20052;-66
2022/12/07 13:02:22;;;;;;;5.72;1.45;;;8.10;99.90;;;;;;5083025;28;20036;-67
2022/12/07 13:04:51;;;;;;;6.35;1.42;;;8.30;99.90;;;;;;5078823;28;20036;-69
2022/12/07 13:07:50;;;;;;;2.20;1.13;;;8.60;99.90;;;;;;5086523;28;20044;-66
2022/12/07 13:10:32;;;;;;;3.38;1.27;;;8.30;99.90;;;;;;5092392;28;20051;-67
2022/12/07 13:13:17;;;;;;;8.80;1.35;;;8.00;99.90;;;;;;5083132;28;20487;-66
2022/12/07 13:15:49;;;;;;;8.25;1.25;;;7.70;99.90;;;;;;5085686;28;20047;-67
2022/12/07 13:18:27;;;;;;;5.18;0.90;;;7.40;99.90;;;;;;5072490;28;20088;-67
2022/12/07 13:20:54;;;;;;;5.93;1.63;;;7.00;99.90;;;;;;5071447;28;20045;-70
2022/12/07 13:23:44;;;;;;;8.00;0.88;;;7.00;99.90;;;;;;5054898;28;20052;-67
2022/12/07 13:26:20;;;;;;;3.88;1.00;;;6.90;99.90;;;;;;5065732;28;20057;-67
2022/12/07 13:29:15;;;;;;;5.75;1.15;;;7.10;99.90;;;;;;5091637;28;20048;-67